Airfield :
LOGIN :

Register | Disclaimer

   EN    FR    IT 

 










Legend :    VFR   Marginal VFR   IFR   Intensive IFR   Very Intensive IFR
Visi :
Ceiling :
>= 8 km
>= 3000ft
5 to 8 km
1000 to 3000 ft
1500m to 5 km
500 to 1000 ft
800 to 1500m
200 to 500 ft
< 800m
< 200 ft
Symbols :   Thunderstorms  Fog  Heavy snow  Heavy precipitations  Wind > 20 kt
SIGMETs :     Misc.  Thunderstorms  Icing  Turbulence  Mountain Waves  Volcanic Ashes







- Airport Elevation : 53 ft
- IATA code : AGP


LEMG - Malaga

CURRENT METAR :
  • 280330Z 29005KT CAVOK 23/13 Q1014 NOSIG

EXPIRED METARs :
  • 280300Z 28008KT CAVOK 24/13 Q1013 NOSIG
  • 280230Z 28009KT 250V320 CAVOK 24/13 Q1014 NOSIG
  • 280130Z 28010KT CAVOK 25/13 Q1014 NOSIG
  • 280100Z 28009KT CAVOK 25/13 Q1014 NOSIG

TAF TAF LEMG
Valid from the 28 at 00:00 until the 29 at 00:00 UTC


272300Z 2800/2824 32009KT CAVOK TX30/2815Z TN20/2806Z
PROB40
TEMPO 2806/2818 32015G25KT
No reported NOTAMs for that airfield.
2 SIGMETs reported for the Madrid FIR (LECM) :
 
Embedded thunderstorms
LECM SIGMET 10 VALID 272207/272400 LEVA
LECM MADRID FIR/UIR EMBD TS OBS AT 2207Z WI N43 W00350 - N4210 W00330 - N4210 W002 - N43 W00210 TOP FL280 MOV E NC=
Severe turbulence
LECM SIGMET 1 VALID 280300/280700 LEVA
LECM MADRID FIR/UIR SEV TURB FCST WI N45 W00850 - N4240 W00530 - N42 W00640 - N4350 W01250 - N45 W013 FL210/220260 MOV ENE NC=



MET'MAP, your aeronautical weather chart ! - Copyright ORBIFLY December 2007 - Disclaimer

ORBIFLY MET'MAP TEAM :

Programming & Development : Alexandra Zaïnal
Concept & Development : Baudouin d'Aumeries
Co-Development & Prog : Marc-Olivier Méhu
Technical & hardware support : Manuel Goepfert

Contact : metmap@orbifly.com




SOURCES & CREDITS :

   NOAA